Winona, Ohio
Current Conditions -  °F | °C
As of 12:51 AM on Saturday 29 Nov 2014 (Local Time) from KCAK Reporting Station
Overcast Overcast  
Wind Chill: 20°   Ceiling: 7000
Heat Index: 29°   Visibility: 10mi
Dew Point: 20°   Wind: 10mph
Humidity: 69%   Direction: 180°S
Pressure: 30.11"   Gusts: NA
Location:  40.83°N, 80.9°W
Report Text: KCAK 290551Z 18009KT 10SM OVC070 M02/M07 A3011 RMK AO2 SLP212 60000 T10171067 11017 21033 58009
Loading
Personal Weather Stations






























Interactive Weather Map New forecast layout! Learn more

10-Day Weather Forecast

Advertisements
Track Severe Weather on mobile